Time;durP1;ratioP1;P1;durP2;ratioP2;P2;SDS_P1;SDS_P2;PMS_P1;PMS_P2;Temp;Humidity;BMP_temperature;BMP_pressure;BME280_temperature;BME280_humidity;BME280_pressure;Samples;Min_cycle;Max_cycle;Signal;HPM_P1;HPM_P2
2021/09/04 00:00:07;;;;;;;5.23;1.80;;;;;;;13.34;100.00;99852.75;1751248;81;22972;-66
2021/09/04 00:02:33;;;;;;;4.50;1.90;;;;;;;13.34;100.00;99852.75;1754850;81;21371;-66
2021/09/04 00:05:00;;;;;;;6.30;1.67;;;;;;;13.35;100.00;99854.34;1780298;79;21385;-66
2021/09/04 00:07:28;;;;;;;2.97;1.60;;;;;;;13.35;100.00;99854.34;1818116;78;21766;-66
2021/09/04 00:09:57;;;;;;;5.30;1.90;;;;;;;13.29;100.00;99851.25;1807684;78;21236;-66
2021/09/04 00:12:24;;;;;;;3.53;1.77;;;;;;;13.24;100.00;99861.56;1812176;78;21446;-67
2021/09/04 00:14:53;;;;;;;3.83;1.70;;;;;;;13.24;100.00;99861.56;1806026;78;21351;-66
2021/09/04 00:17:21;;;;;;;3.43;1.70;;;;;;;13.23;100.00;99859.93;1817650;78;21415;-66
2021/09/04 00:19:48;;;;;;;4.67;1.80;;;;;;;13.18;100.00;99859.23;1815857;78;21966;-67
2021/09/04 00:22:14;;;;;;;3.43;1.90;;;;;;;13.21;100.00;99862.73;1817203;78;21296;-66
2021/09/04 00:24:41;;;;;;;4.13;2.07;;;;;;;13.25;100.00;99852.69;1817122;78;21175;-66
2021/09/04 00:27:08;;;;;;;4.37;1.67;;;;;;;13.24;100.00;99849.27;1767342;80;21822;-66
2021/09/04 00:29:35;;;;;;;4.47;2.03;;;;;;;13.23;100.00;99847.67;1817582;78;21183;-66
2021/09/04 00:32:02;;;;;;;5.70;2.50;;;;;;;13.22;100.00;99848.66;1805713;78;21800;-66
2021/09/04 00:34:30;;;;;;;4.63;2.60;;;;;;;13.23;100.00;99846.36;1817265;78;21536;-67
2021/09/04 00:36:56;;;;;;;3.70;1.80;;;;;;;13.20;100.00;99846.75;1806087;78;21829;-66
2021/09/04 00:39:22;;;;;;;4.43;2.37;;;;;;;13.13;100.00;99844.16;1817658;78;21382;-66
2021/09/04 00:41:49;;;;;;;6.57;2.63;;;;;;;13.13;100.00;99844.16;1766437;80;21906;-66
2021/09/04 00:44:18;;;;;;;3.70;2.10;;;;;;;13.04;100.00;99842.02;1803781;77;21782;-66
2021/09/04 00:46:44;;;;;;;4.83;2.47;;;;;;;12.97;100.00;99842.03;1816083;78;21643;-67
2021/09/04 00:49:11;;;;;;;5.07;2.60;;;;;;;12.91;100.00;99841.04;1817873;78;22774;-65
2021/09/04 00:51:37;;;;;;;4.03;2.30;;;;;;;12.85;100.00;99845.81;1815401;78;21765;-66
2021/09/04 00:54:04;;;;;;;4.33;2.10;;;;;;;12.79;100.00;99842.70;1817845;78;21166;-66
2021/09/04 00:56:31;;;;;;;4.47;2.20;;;;;;;12.72;100.00;99843.23;1817091;78;21860;-67
2021/09/04 00:59:02;;;;;;;5.97;2.30;;;;;;;12.66;100.00;99841.46;1808783;77;21776;-66
2021/09/04 01:01:30;;;;;;;4.50;2.20;;;;;;;12.55;100.00;99844.20;1764021;80;21750;-67
2021/09/04 01:03:58;;;;;;;6.07;2.63;;;;;;;12.51;100.00;99839.61;1806652;78;21171;-67
2021/09/04 01:06:25;;;;;;;4.87;2.73;;;;;;;12.41;100.00;99842.13;1817705;78;21277;-66
2021/09/04 01:08:53;;;;;;;5.97;2.40;;;;;;;12.32;100.00;99838.14;1816783;78;21372;-66
2021/09/04 01:11:21;;;;;;;4.97;2.80;;;;;;;12.25;100.00;99835.23;1778685;80;21520;-65
2021/09/04 01:13:48;;;;;;;5.10;2.50;;;;;;;12.22;100.00;99836.44;1812023;78;21326;-65
2021/09/04 01:16:14;;;;;;;6.03;2.97;;;;;;;12.17;100.00;99835.75;1810233;78;21609;-66
2021/09/04 01:18:41;;;;;;;5.47;2.60;;;;;;;12.09;100.00;99828.63;1817237;78;21211;-66
2021/09/04 01:21:10;;;;;;;6.30;3.00;;;;;;;12.02;100.00;99835.16;1817188;78;21192;-66
2021/09/04 01:23:36;;;;;;;5.30;3.00;;;;;;;11.96;100.00;99824.20;1817541;78;21192;-66
2021/09/04 01:26:06;;;;;;;5.67;2.97;;;;;;;11.91;100.00;99824.82;1810409;78;21071;-66
2021/09/04 01:28:33;;;;;;;6.20;2.60;;;;;;;11.89;100.00;99824.23;1811777;78;21283;-66
2021/09/04 01:30:59;;;;;;;5.57;2.97;;;;;;;11.83;100.00;99821.59;1810781;78;21218;-66
2021/09/04 01:33:25;;;;;;;6.90;3.50;;;;;;;11.79;100.00;99823.80;1812674;78;21328;-66
2021/09/04 01:35:52;;;;;;;4.97;3.10;;;;;;;11.77;100.00;99815.34;1817600;78;21013;-66
2021/09/04 01:38:19;;;;;;;4.87;2.70;;;;;;;11.78;100.00;99814.84;1817691;78;21214;-66
2021/09/04 01:40:46;;;;;;;4.07;2.43;;;;;;;11.79;100.00;99814.66;1779056;80;21051;-66
2021/09/04 01:43:12;;;;;;;5.80;2.40;;;;;;;11.80;100.00;99811.03;1807171;78;21280;-66
2021/09/04 01:45:40;;;;;;;4.60;2.80;;;;;;;11.78;100.00;99807.84;1816055;78;21576;-66
2021/09/04 01:48:07;;;;;;;6.87;3.20;;;;;;;11.76;100.00;99807.22;1817201;78;21697;-66
2021/09/04 01:50:33;;;;;;;9.30;2.63;;;;;;;11.74;100.00;99811.83;1769782;80;21186;-66
2021/09/04 01:53:01;;;;;;;5.27;2.70;;;;;;;11.75;100.00;99807.44;1817507;78;21176;-66
2021/09/04 01:55:28;;;;;;;5.80;2.93;;;;;;;11.78;100.00;99807.84;1816899;78;21715;-65
2021/09/04 01:57:55;;;;;;;6.00;2.33;;;;;;;11.74;100.00;99806.61;1810911;78;23138;-65
2021/09/04 02:00:22;;;;;;;5.57;3.03;;;;;;;11.72;100.00;99806.02;1802416;78;21632;-64
2021/09/04 02:02:48;;;;;;;5.63;2.57;;;;;;;11.75;100.00;99802.21;1816194;78;21083;-64
2021/09/04 02:05:15;;;;;;;5.03;2.57;;;;;;;11.76;100.00;99806.42;1785049;78;21208;-65
2021/09/04 02:07:41;;;;;;;5.57;2.43;;;;;;;11.75;100.00;99806.12;1781881;80;21278;-67
2021/09/04 02:10:09;;;;;;;4.73;2.37;;;;;;;11.69;100.00;99795.97;1782438;80;21770;-67
2021/09/04 02:12:36;;;;;;;4.47;2.73;;;;;;;11.67;100.00;99798.00;1782267;80;21165;-67
2021/09/04 02:15:06;;;;;;;5.50;2.43;;;;;;;11.57;100.00;99795.77;1771143;80;21592;-67
2021/09/04 02:17:34;;;;;;;4.53;2.13;;;;;;;11.47;100.00;99801.88;1781881;79;21076;-65
2021/09/04 02:20:04;;;;;;;5.60;2.73;;;;;;;11.46;100.00;99801.59;1782613;79;21539;-65
2021/09/04 02:22:31;;;;;;;4.57;2.30;;;;;;;11.40;100.00;99799.77;1782381;79;21185;-67
2021/09/04 02:24:57;;;;;;;6.17;2.53;;;;;;;11.37;100.00;99795.77;1782381;80;21773;-67
2021/09/04 02:27:26;;;;;;;4.83;2.47;;;;;;;11.43;100.00;99797.56;1770231;80;21232;-68
2021/09/04 02:29:54;;;;;;;5.63;2.83;;;;;;;11.39;100.00;99792.44;1782630;80;21338;-67
2021/09/04 02:32:20;;;;;;;5.37;2.47;;;;;;;11.38;100.00;99798.67;1771312;80;21827;-68
2021/09/04 02:34:49;;;;;;;5.17;2.50;;;;;;;11.37;100.00;99794.97;1781323;80;21100;-67
2021/09/04 02:37:18;;;;;;;6.10;3.13;;;;;;;11.34;100.00;99796.66;1781745;80;21075;-67
2021/09/04 02:39:45;;;;;;;9.73;2.57;;;;;;;11.33;100.00;99796.38;1781632;80;21365;-67
2021/09/04 02:42:13;;;;;;;6.70;2.80;;;;;;;11.31;100.00;99800.97;1782567;80;21182;-67
2021/09/04 02:44:40;;;;;;;4.30;2.13;;;;;;;11.31;100.00;99797.06;1771033;80;21101;-68
2021/09/04 02:47:09;;;;;;;5.07;2.37;;;;;;;11.26;100.00;99804.19;1781983;80;21200;-68
2021/09/04 02:49:37;;;;;;;5.70;2.37;;;;;;;11.22;100.00;99795.66;1781515;80;21316;-68
2021/09/04 02:52:04;;;;;;;4.30;2.23;;;;;;;11.27;100.00;99800.56;1782330;80;21314;-68
2021/09/04 02:54:31;;;;;;;4.90;2.60;;;;;;;11.31;100.00;99804.88;1782266;80;21133;-66
2021/09/04 02:56:59;;;;;;;4.50;2.20;;;;;;;11.33;100.00;99801.59;1781748;79;21710;-68
2021/09/04 02:59:26;;;;;;;5.43;3.10;;;;;;;11.33;100.00;99808.91;1781649;80;21821;-68
2021/09/04 03:01:53;;;;;;;5.87;2.67;;;;;;;11.34;100.00;99809.20;1716236;79;21831;-66
2021/09/04 03:04:20;;;;;;;7.07;2.80;;;;;;;11.39;100.00;99809.91;1671912;84;21144;-66
2021/09/04 03:06:47;;;;;;;5.73;2.57;;;;;;;11.42;100.00;99810.31;1684444;84;21012;-66
2021/09/04 03:09:14;;;;;;;4.90;2.67;;;;;;;11.42;100.00;99806.41;1679871;84;21298;-66
2021/09/04 03:11:41;;;;;;;6.53;2.63;;;;;;;11.43;100.00;99802.78;1681736;84;21392;-67
2021/09/04 03:14:09;;;;;;;5.97;3.13;;;;;;;11.48;100.00;99807.91;1679895;84;21252;-68
2021/09/04 03:16:36;;;;;;;7.27;3.00;;;;;;;11.54;100.00;99803.20;1673219;84;21131;-65
2021/09/04 03:19:02;;;;;;;6.83;3.00;;;;;;;11.58;100.00;99793.96;1683243;84;21252;-67
2021/09/04 03:21:29;;;;;;;4.83;2.60;;;;;;;11.68;100.00;99792.56;1680444;84;21583;-67
2021/09/04 03:23:56;;;;;;;5.73;2.57;;;;;;;11.79;100.00;99792.97;1675969;84;21306;-68
2021/09/04 03:26:23;;;;;;;5.77;3.07;;;;;;;11.95;100.00;99790.47;1680336;84;21803;-68
2021/09/04 03:28:50;;;;;;;6.03;2.93;;;;;;;12.20;100.00;99789.30;1678712;84;21778;-66
2021/09/04 03:31:17;;;;;;;4.67;2.80;;;;;;;12.63;100.00;99792.19;1678848;83;21242;-66
2021/09/04 03:33:43;;;;;;;6.00;3.10;;;;;;;14.12;100.00;99795.47;1675772;84;21293;-66
2021/09/04 03:36:12;;;;;;;5.17;2.60;;;;;;;14.98;100.00;99792.38;1685408;84;22010;-67
2021/09/04 03:38:40;;;;;;;6.13;2.87;;;;;;;14.98;100.00;99792.38;1675481;83;21693;-68
2021/09/04 03:41:06;;;;;;;7.33;3.90;;;;;;;15.76;100.00;99786.17;1684804;84;21758;-68
2021/09/04 03:43:35;;;;;;;5.77;3.53;;;;;;;16.66;100.00;99790.65;1676756;84;20955;-67
2021/09/04 03:46:03;;;;;;;4.90;3.50;;;;;;;17.53;100.00;99778.48;1675590;84;20955;-66
2021/09/04 03:48:29;;;;;;;6.17;3.70;;;;;;;18.28;100.00;99769.27;1688153;84;22250;-65
2021/09/04 03:50:59;;;;;;;6.23;3.50;;;;;;;18.89;100.00;99777.09;1669712;84;21362;-66
2021/09/04 03:53:26;;;;;;;5.50;3.37;;;;;;;19.45;100.00;99773.63;1689041;83;21473;-67
2021/09/04 03:55:55;;;;;;;6.17;2.97;;;;;;;19.92;100.00;99777.66;1675981;84;20967;-67
2021/09/04 03:58:23;;;;;;;6.33;2.70;;;;;;;20.41;97.89;99783.17;1688618;84;21117;-66
2021/09/04 04:00:50;;;;;;;5.77;3.10;;;;;;;20.92;85.40;99782.56;1675841;84;21146;-68
2021/09/04 04:03:18;;;;;;;5.60;3.07;;;;;;;21.10;75.39;99795.28;1696867;83;21098;-67
2021/09/04 04:05:45;;;;;;;7.60;3.57;;;;;;;20.96;71.56;99795.55;1701039;82;21064;-70
2021/09/04 04:08:11;;;;;;;4.90;3.10;;;;;;;20.70;72.89;99797.34;1695323;83;20951;-70
2021/09/04 04:10:38;;;;;;;5.90;3.23;;;;;;;20.80;74.40;99801.35;1698517;83;21106;-69
2021/09/04 04:13:05;;;;;;;6.07;3.10;;;;;;;21.20;69.52;99802.46;1687842;83;22414;-69
2021/09/04 04:15:31;;;;;;;4.97;3.20;;;;;;;21.60;65.05;99791.89;1688605;83;21651;-69
2021/09/04 04:18:00;;;;;;;5.93;3.50;;;;;;;21.89;60.65;99789.97;1693388;83;21520;-66
2021/09/04 04:20:27;;;;;;;6.50;3.23;;;;;;;22.16;57.91;99800.80;1697336;83;22618;-67
2021/09/04 04:22:55;;;;;;;5.30;3.03;;;;;;;22.39;56.67;99795.41;1688308;84;21331;-67
2021/09/04 04:25:21;;;;;;;6.10;3.30;;;;;;;22.61;55.20;99792.39;1688218;84;21492;-67
2021/09/04 04:27:49;;;;;;;5.00;3.07;;;;;;;22.88;53.47;99787.47;1688864;84;21526;-67
2021/09/04 04:30:17;;;;;;;4.93;2.90;;;;;;;23.02;51.77;99787.11;1687067;84;20936;-68
2021/09/04 04:32:45;;;;;;;7.70;3.73;;;;;;;23.10;51.23;99782.28;1688406;84;22403;-67
2021/09/04 04:35:12;;;;;;;6.67;4.67;;;;;;;23.27;50.58;99779.48;1687547;84;21027;-67
2021/09/04 04:37:39;;;;;;;8.20;3.83;;;;;;;23.43;50.15;99782.02;1688184;84;21143;-67
2021/09/04 04:40:08;;;;;;;9.67;5.37;;;;;;;23.87;49.61;99781.10;1687706;84;21130;-67
2021/09/04 04:42:36;;;;;;;11.17;7.23;;;;;;;24.25;48.26;99778.79;1687770;84;20979;-68
2021/09/04 04:45:06;;;;;;;10.63;7.55;;;;;;;24.46;46.59;99774.02;1688656;84;21011;-68
2021/09/04 04:47:33;;;;;;;11.45;8.20;;;;;;;24.63;45.91;99777.53;1687850;84;21481;-67
2021/09/04 04:50:04;;;;;;;8.98;6.42;;;;;;;24.84;45.47;99779.34;1685974;84;20980;-68
2021/09/04 04:52:31;;;;;;;7.75;4.90;;;;;;;25.05;44.48;99779.06;1691366;83;21094;-68
2021/09/04 04:55:00;;;;;;;5.97;4.10;;;;;;;25.16;43.49;99774.63;1658920;85;21026;-69
2021/09/04 04:57:26;;;;;;;7.08;4.40;;;;;;;25.22;43.36;99773.45;1691358;83;20947;-67
2021/09/04 04:59:53;;;;;;;7.10;4.53;;;;;;;25.29;43.02;99779.75;1697501;83;21077;-69
2021/09/04 05:02:20;;;;;;;5.92;3.95;;;;;;;25.39;42.79;99786.26;1689843;83;21162;-68
2021/09/04 05:04:46;;;;;;;6.12;3.92;;;;;;;25.37;42.60;99777.73;1695924;83;22215;-66
2021/09/04 05:07:13;;;;;;;7.15;3.90;;;;;;;25.27;42.30;99773.93;1698258;83;21064;-67
2021/09/04 05:09:39;;;;;;;5.92;3.33;;;;;;;24.75;42.48;99778.42;1692067;83;21125;-66
2021/09/04 05:12:07;;;;;;;6.25;3.55;;;;;;;24.40;44.32;99781.83;1697765;83;20931;-68
2021/09/04 05:14:35;;;;;;;4.35;3.30;;;;;;;24.27;44.72;99780.61;1690156;83;21156;-68
2021/09/04 05:17:04;;;;;;;9.13;3.65;;;;;;;24.06;44.85;99787.81;1691893;83;21055;-68
2021/09/04 05:19:31;;;;;;;4.87;3.17;;;;;;;23.59;45.89;99792.77;1700267;83;21011;-67
2021/09/04 05:21:59;;;;;;;6.60;3.60;;;;;;;23.02;46.82;99777.80;1688726;83;21585;-69
2021/09/04 05:24:26;;;;;;;5.10;3.40;;;;;;;22.38;49.06;99780.55;1690847;83;21049;-67
2021/09/04 05:26:54;;;;;;;5.60;3.20;;;;;;;21.97;51.66;99785.45;1688872;84;21182;-66
2021/09/04 05:29:21;;;;;;;5.17;3.10;;;;;;;21.46;55.05;99789.50;1687180;84;21029;-67
2021/09/04 05:31:48;;;;;;;6.07;3.57;;;;;;;20.95;59.94;99788.14;1685392;84;20906;-66
2021/09/04 05:34:15;;;;;;;7.17;3.40;;;;;;;20.53;65.85;99795.72;1693227;83;20994;-67
2021/09/04 05:36:43;;;;;;;6.97;3.57;;;;;;;20.13;72.46;99810.33;1699829;83;21071;-67
2021/09/04 05:39:10;;;;;;;7.43;3.37;;;;;;;19.80;79.59;99819.91;1691285;83;21173;-67
2021/09/04 05:41:37;;;;;;;4.73;2.97;;;;;;;19.63;83.94;99830.64;1698968;83;20877;-67
2021/09/04 05:44:04;;;;;;;8.23;3.30;;;;;;;19.44;86.31;99838.91;1688226;83;21075;-68
2021/09/04 05:46:31;;;;;;;5.33;3.00;;;;;;;19.18;88.54;99839.73;1697948;83;20994;-68
2021/09/04 05:48:58;;;;;;;6.57;3.33;;;;;;;19.04;95.00;99834.03;1697991;83;21004;-68
2021/09/04 05:51:24;;;;;;;7.23;3.73;;;;;;;19.00;96.25;99834.27;1692270;83;21148;-68
2021/09/04 05:53:51;;;;;;;7.17;3.57;;;;;;;19.00;98.81;99835.58;1686706;84;21141;-63
2021/09/04 05:56:17;;;;;;;7.63;3.47;;;;;;;19.00;100.00;99831.63;1686960;83;21455;-64
2021/09/04 05:58:44;;;;;;;7.50;4.17;;;;;;;19.02;100.00;99833.50;1684506;84;20925;-65
2021/09/04 06:01:11;;;;;;;5.93;3.73;;;;;;;19.10;100.00;99839.66;1689103;83;21284;-63
2021/09/04 06:03:37;;;;;;;6.17;3.67;;;;;;;19.14;100.00;99828.07;1659302;85;22236;-64
2021/09/04 06:06:04;;;;;;;6.93;3.90;;;;;;;19.19;100.00;99817.02;1666237;84;20988;-63
2021/09/04 06:08:30;;;;;;;7.90;4.53;;;;;;;19.23;100.00;99817.84;1666935;84;21055;-64
2021/09/04 06:10:57;;;;;;;6.03;3.30;;;;;;;19.20;97.82;99826.52;1668587;84;21054;-64
2021/09/04 06:13:23;;;;;;;5.40;3.20;;;;;;;19.08;98.06;99830.38;1669961;84;22181;-64
2021/09/04 06:15:51;;;;;;;5.47;3.33;;;;;;;18.93;100.00;99838.94;1672138;84;21577;-63
2021/09/04 06:18:19;;;;;;;5.33;3.27;;;;;;;18.89;100.00;99840.48;1677052;84;21536;-63
2021/09/04 06:20:45;;;;;;;6.07;3.60;;;;;;;18.87;100.00;99846.55;1674794;83;21060;-62
2021/09/04 06:23:13;;;;;;;7.97;3.80;;;;;;;18.88;100.00;99852.89;1673551;83;21107;-65
2021/09/04 06:25:39;;;;;;;5.97;3.47;;;;;;;18.96;100.00;99846.38;1669702;83;21056;-63
2021/09/04 06:28:06;;;;;;;4.97;3.30;;;;;;;18.98;100.00;99828.94;1669958;84;21176;-62
2021/09/04 06:30:32;;;;;;;5.13;3.10;;;;;;;19.39;100.00;99836.73;1667105;84;21075;-64
2021/09/04 06:32:59;;;;;;;5.80;3.77;;;;;;;20.20;100.00;99835.77;1683531;84;20957;-67
2021/09/04 06:35:26;;;;;;;6.30;3.53;;;;;;;21.21;93.28;99835.85;1680298;84;21163;-62
2021/09/04 06:37:53;;;;;;;8.23;4.20;;;;;;;21.91;78.75;99830.84;1684077;84;20933;-65
2021/09/04 06:40:21;;;;;;;6.93;4.60;;;;;;;22.57;70.62;99831.98;1680974;84;22128;-64
2021/09/04 06:42:48;;;;;;;6.40;4.03;;;;;;;23.44;66.03;99829.61;1678257;84;20982;-67
2021/09/04 06:45:15;;;;;;;9.87;4.43;;;;;;;24.13;56.82;99845.49;1684355;84;20948;-67
2021/09/04 06:47:41;;;;;;;5.60;4.30;;;;;;;24.24;52.17;99850.97;1680789;84;21399;-64
2021/09/04 06:50:10;;;;;;;6.77;4.40;;;;;;;23.89;50.58;99846.27;1688454;83;21459;-63
2021/09/04 06:52:38;;;;;;;7.17;4.03;;;;;;;23.22;51.42;99853.17;1680983;84;20895;-66
2021/09/04 06:55:08;;;;;;;14.80;10.30;;;;;;;22.45;54.48;99852.75;1688259;84;21082;-64
2021/09/04 06:57:34;;;;;;;38.50;21.97;;;;;;;21.83;58.15;99858.18;1681130;84;20995;-66
2021/09/04 07:00:00;;;;;;;64.93;33.47;;;;;;;21.17;64.44;99866.06;1687617;84;22380;-65
2021/09/04 07:02:27;;;;;;;17.23;8.70;;;;;;;20.59;72.50;99858.74;1674517;84;21035;-64
2021/09/04 07:04:54;;;;;;;12.27;5.03;;;;;;;20.12;80.55;99872.24;1670236;84;22030;-65
2021/09/04 07:07:21;;;;;;;11.37;7.13;;;;;;;19.87;86.89;99878.14;1666264;84;20990;-64
2021/09/04 07:09:47;;;;;;;18.77;10.90;;;;;;;19.73;90.43;99878.83;1668486;84;21007;-64
2021/09/04 07:12:14;;;;;;;11.90;6.60;;;;;;;19.52;93.81;99883.92;1665164;84;22443;-64
2021/09/04 07:14:40;;;;;;;7.70;4.50;;;;;;;19.38;97.94;99889.33;1669329;84;21063;-63
2021/09/04 07:17:07;;;;;;;7.33;4.63;;;;;;;19.22;100.00;99882.31;1672231;84;21179;-65
2021/09/04 07:19:33;;;;;;;7.70;4.53;;;;;;;19.07;100.00;99887.70;1673393;84;20967;-65
2021/09/04 07:22:00;;;;;;;8.07;4.80;;;;;;;18.99;100.00;99888.67;1669211;84;20956;-68
2021/09/04 07:24:26;;;;;;;7.00;4.33;;;;;;;18.87;100.00;99884.31;1670320;84;21122;-65
2021/09/04 07:26:53;;;;;;;8.80;4.83;;;;;;;18.83;100.00;99881.10;1670521;84;21608;-66
2021/09/04 07:29:20;;;;;;;6.60;4.30;;;;;;;18.77;100.00;99882.07;1671180;84;21169;-64
2021/09/04 07:31:46;;;;;;;10.23;4.90;;;;;;;18.68;100.00;99874.55;1671058;84;20971;-69
2021/09/04 07:34:13;;;;;;;6.60;4.83;;;;;;;18.68;100.00;99875.08;1670953;84;21581;-67
2021/09/04 07:36:40;;;;;;;9.93;6.70;;;;;;;18.77;100.00;99879.43;1668256;84;21036;-69
2021/09/04 07:39:07;;;;;;;9.60;6.00;;;;;;;18.88;100.00;99885.91;1671166;84;21155;-65
2021/09/04 07:41:34;;;;;;;6.40;4.37;;;;;;;18.97;100.00;99880.98;1672696;84;21209;-65
2021/09/04 07:44:02;;;;;;;40.07;21.87;;;;;;;18.99;100.00;99886.82;1670295;84;21092;-64
2021/09/04 07:46:29;;;;;;;13.47;6.80;;;;;;;19.05;100.00;99889.78;1672406;84;21052;-70
2021/09/04 07:48:56;;;;;;;8.23;5.47;;;;;;;19.11;100.00;99897.25;1668926;84;21084;-67
2021/09/04 07:51:22;;;;;;;7.67;5.03;;;;;;;19.08;100.00;99898.53;1671456;84;21631;-66
2021/09/04 07:53:48;;;;;;;7.40;5.50;;;;;;;18.99;100.00;99894.75;1679248;83;21170;-67
2021/09/04 07:56:16;;;;;;;7.63;5.13;;;;;;;18.89;100.00;99898.58;1670460;84;21020;-66
2021/09/04 07:58:43;;;;;;;8.17;5.17;;;;;;;18.89;100.00;99911.79;1671068;84;21045;-68
2021/09/04 08:01:09;;;;;;;6.70;4.90;;;;;;;18.87;100.00;99909.93;1684682;83;20997;-65
2021/09/04 08:03:36;;;;;;;7.57;4.87;;;;;;;18.85;100.00;99901.44;1668072;84;20990;-67
2021/09/04 08:06:03;;;;;;;8.53;5.40;;;;;;;18.79;100.00;99899.27;1663470;84;21152;-72
2021/09/04 08:08:29;;;;;;;7.80;5.57;;;;;;;18.69;100.00;99898.59;1663412;85;21073;-66
2021/09/04 08:10:57;;;;;;;8.13;4.50;;;;;;;18.55;100.00;99898.66;1647602;85;20945;-64
2021/09/04 08:13:25;;;;;;;8.73;5.67;;;;;;;18.42;100.00;99901.66;1665933;84;22274;-65
2021/09/04 08:15:52;;;;;;;8.07;5.20;;;;;;;18.22;100.00;99899.02;1651634;85;21110;-70
2021/09/04 08:18:21;;;;;;;8.10;5.73;;;;;;;18.13;100.00;99891.22;1648481;85;21124;-69
2021/09/04 08:20:48;;;;;;;7.37;4.53;;;;;;;18.05;100.00;99892.95;1660241;85;20985;-69
2021/09/04 08:23:15;;;;;;;6.53;4.43;;;;;;;17.96;100.00;99898.36;1656758;85;21163;-71
2021/09/04 08:25:42;;;;;;;7.97;4.17;;;;;;;17.92;100.00;99899.88;1661248;85;21110;-69
2021/09/04 08:28:10;;;;;;;7.77;4.50;;;;;;;17.92;100.00;99900.67;1663438;84;21087;-69
2021/09/04 08:30:37;;;;;;;7.43;4.40;;;;;;;17.97;100.00;99899.42;1661187;84;22581;-68
2021/09/04 08:33:04;;;;;;;8.57;5.13;;;;;;;18.06;100.00;99901.13;1664547;85;21099;-71
2021/09/04 08:35:31;;;;;;;6.23;4.30;;;;;;;18.30;100.00;99904.93;1661972;85;21612;-69
2021/09/04 08:37:58;;;;;;;7.23;4.23;;;;;;;18.62;100.00;99905.88;1664472;85;21154;-68
2021/09/04 08:40:26;;;;;;;6.27;3.90;;;;;;;18.99;100.00;99900.03;1661299;85;21135;-67
2021/09/04 08:42:54;;;;;;;7.67;4.53;;;;;;;19.36;100.00;99902.02;1669474;85;21016;-65
2021/09/04 08:45:23;;;;;;;8.53;4.60;;;;;;;19.72;100.00;99895.75;1665916;84;21050;-69
2021/09/04 08:47:51;;;;;;;8.67;4.20;;;;;;;19.96;100.00;99898.30;1666290;84;22471;-65
2021/09/04 08:50:19;;;;;;;8.17;4.30;;;;;;;20.06;100.00;99894.42;1662284;85;21042;-69
2021/09/04 08:52:46;;;;;;;6.20;4.20;;;;;;;20.16;100.00;99890.53;1664699;85;21134;-65
2021/09/04 08:55:13;;;;;;;7.03;4.53;;;;;;;20.26;100.00;99899.04;1665443;85;21193;-69
2021/09/04 08:57:39;;;;;;;5.70;4.00;;;;;;;20.41;100.00;99900.45;1664437;85;21035;-65
2021/09/04 09:00:07;;;;;;;8.03;5.00;;;;;;;20.53;100.00;99891.04;1624029;87;20984;-65
2021/09/04 09:02:33;;;;;;;8.67;4.57;;;;;;;20.72;100.00;99885.27;1663156;84;21536;-68
2021/09/04 09:05:05;;;;;;;9.43;4.50;;;;;;;20.93;100.00;99886.16;1700063;82;20996;-66
2021/09/04 09:07:41;;;;;;;6.30;4.50;;;;;;;20.92;100.00;99888.02;1670145;84;21020;-65
2021/09/04 09:10:25;;;;;;;8.97;4.37;;;;;;;20.85;100.00;99892.75;1693976;84;20955;-66
2021/09/04 09:12:52;;;;;;;10.17;5.73;;;;;;;20.70;100.00;99903.28;1691561;83;21184;-64
2021/09/04 09:15:27;;;;;;;9.10;5.67;;;;;;;20.42;100.00;99915.84;1693581;83;21157;-67
2021/09/04 09:18:01;;;;;;;6.97;4.73;;;;;;;20.10;100.00;99915.88;1693155;83;21032;-64
2021/09/04 09:20:29;;;;;;;7.00;4.50;;;;;;;19.68;100.00;99911.31;1698990;83;21508;-69
2021/09/04 09:23:14;;;;;;;5.80;3.77;;;;;;;19.40;100.00;99912.36;1667819;84;22438;-66
2021/09/04 09:25:41;;;;;;;6.10;3.90;;;;;;;19.22;100.00;99914.02;1683346;84;21517;-64
2021/09/04 09:28:16;;;;;;;6.93;4.50;;;;;;;18.93;100.00;99912.89;1676552;84;20979;-64
2021/09/04 09:30:50;;;;;;;7.27;4.90;;;;;;;18.78;100.00;99905.58;1672372;84;21736;-64
2021/09/04 09:33:22;;;;;;;8.00;4.60;;;;;;;18.77;100.00;99912.44;1672823;84;21153;-64
2021/09/04 09:35:50;;;;;;;7.27;4.97;;;;;;;18.82;100.00;99913.81;1670767;84;20967;-65
2021/09/04 09:38:20;;;;;;;7.03;5.17;;;;;;;19.04;100.00;99914.61;1674227;84;21009;-65
2021/09/04 09:40:49;;;;;;;8.93;5.53;;;;;;;19.22;100.00;99912.70;1681104;84;21328;-63
2021/09/04 09:43:33;;;;;;;8.90;7.10;;;;;;;19.53;100.00;99910.63;1698773;84;20919;-64
2021/09/04 09:46:01;;;;;;;7.57;5.10;;;;;;;19.85;100.00;99918.62;1671722;84;22327;-64
2021/09/04 09:48:31;;;;;;;6.40;4.37;;;;;;;20.18;100.00;99918.84;1694783;84;21052;-64
2021/09/04 09:51:01;;;;;;;6.37;4.57;;;;;;;20.35;100.00;99916.58;1664741;84;21067;-64
2021/09/04 09:53:28;;;;;;;6.20;4.47;;;;;;;20.44;100.00;99915.03;1673125;84;21074;-65
2021/09/04 09:55:56;;;;;;;7.63;4.70;;;;;;;20.57;100.00;99926.54;1672607;84;21566;-64
2021/09/04 09:58:24;;;;;;;6.43;4.50;;;;;;;20.54;100.00;99921.75;1684352;84;21146;-67
2021/09/04 10:00:55;;;;;;;7.03;4.87;;;;;;;20.41;100.00;99920.31;1685862;84;21679;-65
2021/09/04 10:03:25;;;;;;;8.50;5.57;;;;;;;20.39;100.00;99918.98;1673367;84;21106;-64
2021/09/04 10:05:52;;;;;;;9.30;6.30;;;;;;;20.30;100.00;99925.27;1659304;85;21034;-64
2021/09/04 10:08:23;;;;;;;10.63;5.57;;;;;;;20.28;100.00;99921.30;1661320;85;20946;-67
2021/09/04 10:10:51;;;;;;;11.43;6.13;;;;;;;20.26;100.00;99923.39;1664382;85;21036;-64
2021/09/04 10:13:18;;;;;;;10.27;7.07;;;;;;;20.24;100.00;99922.34;1621833;87;21087;-66
2021/09/04 10:15:48;;;;;;;9.87;6.13;;;;;;;20.15;100.00;99920.70;1630846;87;21040;-65
2021/09/04 10:18:15;;;;;;;9.67;5.43;;;;;;;20.14;100.00;99922.25;1646577;85;21566;-64
2021/09/04 10:20:45;;;;;;;8.53;5.80;;;;;;;20.14;100.00;99928.34;1630965;87;21077;-65
2021/09/04 10:23:22;;;;;;;8.63;5.77;;;;;;;20.12;100.00;99930.45;1646561;86;21101;-64
2021/09/04 10:25:49;;;;;;;8.10;5.47;;;;;;;20.16;100.00;99924.14;1633701;86;21398;-65
2021/09/04 10:28:16;;;;;;;7.80;5.63;;;;;;;20.11;100.00;99929.38;1650134;85;21443;-65
2021/09/04 10:30:45;;;;;;;9.33;6.13;;;;;;;19.92;100.00;99930.28;1624468;86;20973;-65
2021/09/04 10:33:14;;;;;;;11.27;6.53;;;;;;;19.85;100.00;99935.81;1633792;86;21119;-68
2021/09/04 10:35:53;;;;;;;9.43;5.93;;;;;;;19.75;100.00;99933.06;1657021;85;22821;-63
2021/09/04 10:38:26;;;;;;;9.23;5.53;;;;;;;19.64;100.00;99928.20;1653242;85;21004;-69
2021/09/04 10:41:16;;;;;;;7.30;5.27;;;;;;;19.57;100.00;99922.29;1653139;85;21205;-65
2021/09/04 10:43:45;;;;;;;7.07;4.97;;;;;;;19.57;100.00;99923.61;1649542;85;20972;-66
2021/09/04 10:46:15;;;;;;;7.40;5.13;;;;;;;19.60;100.00;99928.41;1632966;86;21553;-69
2021/09/04 10:48:42;;;;;;;9.83;6.03;;;;;;;19.60;100.00;99936.34;1653924;85;21901;-65
2021/09/04 10:51:10;;;;;;;8.10;5.13;;;;;;;19.56;100.00;99943.70;1648119;85;21036;-65
2021/09/04 10:53:43;;;;;;;9.37;5.77;;;;;;;19.53;100.00;99946.31;1661027;85;21165;-64
2021/09/04 10:56:24;;;;;;;8.77;6.23;;;;;;;19.38;100.00;99944.84;1662010;85;20964;-66
2021/09/04 10:58:52;;;;;;;10.90;5.75;;;;;;;19.25;100.00;99944.71;1663270;85;21091;-64
2021/09/04 11:01:28;;;;;;;7.67;5.07;;;;;;;19.19;100.00;99948.33;1665435;85;21164;-65
2021/09/04 11:03:56;;;;;;;7.77;4.70;;;;;;;19.05;100.00;99947.89;1667838;83;21043;-64
2021/09/04 11:06:24;;;;;;;10.20;5.23;;;;;;;18.87;100.00;99949.55;1688278;83;21141;-64
2021/09/04 11:08:53;;;;;;;6.90;4.73;;;;;;;18.76;100.00;99951.78;1668740;84;20975;-62
2021/09/04 11:11:36;;;;;;;7.87;5.50;;;;;;;18.62;100.00;99951.28;1677426;84;21179;-64
2021/09/04 11:14:18;;;;;;;9.70;5.93;;;;;;;18.52;100.00;99950.61;1681919;84;21140;-61
2021/09/04 11:16:54;;;;;;;7.60;5.50;;;;;;;18.52;100.00;99955.09;1666859;84;21642;-62
2021/09/04 11:19:32;;;;;;;9.53;6.10;;;;;;;18.39;100.00;99950.97;1677034;84;21051;-60
2021/09/04 11:22:06;;;;;;;7.17;4.77;;;;;;;18.31;100.00;99946.89;1669122;84;21003;-67
2021/09/04 11:24:38;;;;;;;8.17;5.03;;;;;;;18.34;100.00;99941.66;1658391;84;21134;-62
2021/09/04 11:27:19;;;;;;;7.23;4.77;;;;;;;18.46;100.00;99948.96;1671757;84;22421;-64
2021/09/04 11:29:49;;;;;;;8.03;4.92;;;;;;;18.47;100.00;99939.99;1679116;84;20992;-66